• LFSB

    METAR de LFSB (émis le 2022/08/07 18:00 UTC):
    LFSB 071800Z AUTO 11008KT 070V130 CAVOK 26/14 Q1018 NOSIG

    TAF de LFSB (émis le 2022/08/07 18:47 UTC):
    LFSB 071700Z 0718/0818 11010KT CAVOK BECMG 0722/0801 33004KT BECMG 0813/0815 11010KT
  • LFSX

    METAR de LFSX (émis le 2022/08/07 18:00 UTC):
    LFSX 071800Z AUTO 01008KT 330V050 CAVOK 28/08 Q1018

    TAF de LFSX (émis le 2022/08/05 18:45 UTC):
    LFSX 051837Z 0518/0615 CNL
  • LFSD

    METAR de LFSD (émis le 2022/08/07 18:00 UTC):
    LFSD 071800Z AUTO 01011KT 330V030 CAVOK 28/04 Q1017

    TAF de LFSD (émis le 2015/06/01 00:11 UTC):
    LFSD 010600Z 0100/0124 CNL
  • LFGJ

    METAR de LFGJ (émis le 2022/08/07 18:00 UTC):
    LFGJ 071800Z AUTO 36012KT CAVOK 29/09 Q1016

    TAF COURT de LFGJ
    (émis le 2022/08/07 16:03 UTC):
    TAF TAF LFGJ 071700Z 0716/0724 CNL
  • LFJL

    METAR de LFJL (émis le 2022/08/07 18:00 UTC):
    LFJL 071800Z AUTO 03009KT CAVOK 26/06 Q1020 NOSIG

    TAF de LFJL (émis le 2022/08/07 18:21 UTC):
    LFJL 071700Z 0718/0818 03010KT CAVOK
  • LFST

    METAR de LFST (émis le 2022/08/07 18:00 UTC):
    LFST 071800Z AUTO 01011KT CAVOK 27/05 Q1018 NOSIG

    TAF de LFST (émis le 2022/08/07 18:21 UTC):
    LFST 071700Z 0718/0818 03010KT CAVOK BECMG 0723/0801 34005KT BECMG 0809/0812 04010KT